createdAt,value
2022-08-03T00:01:35.684Z,99611.13
2022-08-03T00:04:03.768Z,99616.06
2022-08-03T00:06:36.462Z,99716.75
2022-08-03T00:09:05.185Z,99600.38
2022-08-03T00:11:33.046Z,99444.41
2022-08-03T00:14:01.020Z,99562.69
2022-08-03T00:16:30.368Z,99748.66
2022-08-03T00:18:58.290Z,99770.91
2022-08-03T00:21:29.251Z,99653.75
2022-08-03T00:23:57.248Z,99552.38
2022-08-03T00:26:25.155Z,99778.91
2022-08-03T00:28:53.062Z,99636.56
2022-08-03T00:31:32.216Z,99460.38
2022-08-03T00:34:10.216Z,99780.03
2022-08-03T00:36:40.678Z,99779.63
2022-08-03T00:39:08.746Z,99524.25
2022-08-03T00:41:36.682Z,99690.63
2022-08-03T00:44:05.063Z,99613.69
2022-08-03T00:46:33.006Z,99552.28
2022-08-03T00:49:00.995Z,99630.91
2022-08-03T00:51:30.449Z,99561.03
2022-08-03T00:53:58.318Z,99776.88
2022-08-03T00:56:26.242Z,99599.06
2022-08-03T00:58:54.282Z,99820.50
2022-08-03T01:01:22.373Z,99808.72
2022-08-03T01:03:50.450Z,99519.91
2022-08-03T01:06:19.368Z,99576.16
2022-08-03T01:08:52.869Z,99657.88
2022-08-03T01:11:25.342Z,99813.16
2022-08-03T01:14:03.667Z,99836.22
2022-08-03T01:16:49.252Z,99753.03
2022-08-03T01:19:43.672Z,99795.16
2022-08-03T01:22:31.232Z,99716.25
2022-08-03T01:25:04.161Z,99552.59
2022-08-03T01:27:36.611Z,99604.16
2022-08-03T01:30:07.792Z,99807.19
2022-08-03T01:32:59.008Z,99756.50
2022-08-03T01:35:28.840Z,99832.44
2022-08-03T01:37:59.513Z,99811.13
2022-08-03T01:40:27.964Z,99689.81
2022-08-03T01:42:56.307Z,99613.63
2022-08-03T01:45:25.851Z,99553.97
2022-08-03T01:47:53.774Z,99624.00
2022-08-03T01:50:22.749Z,99833.56
2022-08-03T01:52:50.764Z,99746.47
2022-08-03T01:55:18.932Z,99801.34
2022-08-03T01:58:05.785Z,99751.25
2022-08-03T02:00:36.351Z,99683.72
2022-08-03T02:03:04.693Z,99739.97
2022-08-03T02:05:32.651Z,99561.09
2022-08-03T02:08:00.593Z,99892.84
2022-08-03T02:10:34.205Z,99749.28
2022-08-03T02:13:04.301Z,99561.59
2022-08-03T02:15:32.426Z,99641.97
2022-08-03T02:18:01.815Z,99726.19
2022-08-03T02:20:30.275Z,99683.75
2022-08-03T02:22:58.227Z,99794.00
2022-08-03T02:25:26.366Z,99486.16
2022-08-03T02:27:56.735Z,99625.78
2022-08-03T02:30:24.951Z,99839.59
2022-08-03T02:32:54.851Z,99836.13
2022-08-03T02:35:24.523Z,99628.41
2022-08-03T02:37:54.078Z,99781.75
2022-08-03T02:40:22.169Z,99688.88
2022-08-03T02:42:51.253Z,99816.28
2022-08-03T02:45:19.146Z,99790.63
2022-08-03T02:47:54.005Z,99522.44
2022-08-03T02:50:24.507Z,99790.03
2022-08-03T02:52:52.663Z,99540.75
2022-08-03T02:55:21.096Z,99810.69
2022-08-03T02:57:48.952Z,99492.19
2022-08-03T03:00:27.528Z,99637.97
2022-08-03T03:02:57.501Z,99639.84
2022-08-03T03:05:56.761Z,99784.31
2022-08-03T03:08:18.694Z,99806.41
2022-08-03T03:10:46.932Z,99604.75
2022-08-03T03:13:15.045Z,99870.75
2022-08-03T03:15:43.095Z,99720.34
2022-08-03T03:18:11.059Z,99791.59
2022-08-03T03:20:40.953Z,99623.94
2022-08-03T03:23:09.642Z,99780.88
2022-08-03T03:25:37.544Z,99669.09
2022-08-03T03:28:06.394Z,99657.09
2022-08-03T03:30:34.553Z,99759.44
2022-08-03T03:33:02.866Z,99399.50
2022-08-03T03:35:30.877Z,99635.19
2022-08-03T03:38:08.054Z,99661.59
2022-08-03T03:40:36.344Z,99643.63
2022-08-03T03:43:04.262Z,99786.00
2022-08-03T03:45:32.158Z,99795.84
2022-08-03T03:48:01.205Z,99784.31
2022-08-03T03:53:03.985Z,99789.81
2022-08-03T03:55:33.426Z,99790.75
2022-08-03T03:58:01.401Z,99789.88
2022-08-03T04:00:29.412Z,99782.84
2022-08-03T04:02:57.295Z,99787.22
2022-08-03T04:05:45.886Z,99796.09
2022-08-03T04:08:32.716Z,99786.44
2022-08-03T04:11:08.586Z,99793.56
2022-08-03T04:13:39.577Z,99783.31
2022-08-03T04:16:08.234Z,99793.56
2022-08-03T04:18:36.262Z,99790.91
2022-08-03T04:21:05.092Z,99785.75
2022-08-03T04:23:34.875Z,99787.53
2022-08-03T04:26:04.340Z,99798.88
2022-08-03T04:28:32.424Z,99787.38
2022-08-03T04:31:00.604Z,99792.53
2022-08-03T04:33:29.641Z,99794.25
2022-08-03T04:36:02.749Z,99791.59
2022-08-03T04:38:31.666Z,99796.84
2022-08-03T04:40:59.628Z,99795.13
2022-08-03T04:43:28.894Z,99804.59
2022-08-03T04:45:56.823Z,99793.06
2022-08-03T04:48:24.676Z,99803.22
2022-08-03T04:50:52.498Z,99811.91
2022-08-03T04:53:20.306Z,99810.13
2022-08-03T04:55:48.239Z,99809.06
2022-08-03T04:58:16.042Z,99805.38
2022-08-03T05:00:45.623Z,99802.47
2022-08-03T05:03:23.602Z,99806.69
2022-08-03T05:05:52.390Z,99805.75
2022-08-03T05:08:28.021Z,99810.72
2022-08-03T05:10:58.807Z,99794.72
2022-08-03T05:13:27.384Z,99802.25
2022-08-03T05:15:56.598Z,99805.53
2022-08-03T05:18:24.521Z,99808.00
2022-08-03T05:20:52.346Z,99815.69
2022-08-03T05:23:20.263Z,99818.94
2022-08-03T05:25:50.095Z,99818.59
2022-08-03T05:28:18.197Z,99808.69
2022-08-03T05:30:46.393Z,99814.53
2022-08-03T05:33:15.665Z,99822.25
2022-08-03T05:35:57.675Z,99818.47
2022-08-03T05:38:35.093Z,99817.25
2022-08-03T05:41:21.408Z,99815.09
2022-08-03T05:43:52.187Z,99821.75
2022-08-03T05:46:21.548Z,99806.31
2022-08-03T05:48:50.745Z,99809.38
2022-08-03T05:51:18.660Z,99811.44
2022-08-03T05:53:46.596Z,99814.19
2022-08-03T05:56:16.263Z,99806.91
2022-08-03T05:58:46.220Z,99805.78
2022-08-03T06:01:14.154Z,99808.13
2022-08-03T06:03:42.217Z,99805.38
2022-08-03T06:06:11.618Z,99808.31
2022-08-03T06:08:39.874Z,99806.22
2022-08-03T06:11:07.744Z,99793.28
2022-08-03T06:13:35.677Z,99803.88
2022-08-03T06:16:03.543Z,99802.41
2022-08-03T06:18:31.508Z,99811.16
2022-08-03T06:21:09.595Z,99810.66
2022-08-03T06:23:53.963Z,99811.47
2022-08-03T06:26:26.646Z,99805.19
2022-08-03T06:28:54.980Z,99813.84
2022-08-03T06:31:26.090Z,99806.50
2022-08-03T06:34:33.306Z,99808.56
2022-08-03T06:36:51.191Z,99808.19
2022-08-03T06:39:23.651Z,99812.75
2022-08-03T06:41:52.728Z,99813.94
2022-08-03T06:44:20.945Z,99809.09
2022-08-03T06:46:48.797Z,99808.06
2022-08-03T06:49:16.923Z,99819.69
2022-08-03T06:52:05.424Z,99818.72
2022-08-03T06:54:37.553Z,99817.19
2022-08-03T06:57:06.457Z,99805.44
2022-08-03T07:00:07.591Z,99810.75
2022-08-03T07:02:22.175Z,99812.00
2022-08-03T07:04:50.146Z,99818.53
2022-08-03T07:07:19.382Z,99819.00
2022-08-03T07:09:54.957Z,99817.81
2022-08-03T07:12:29.194Z,99813.44
2022-08-03T07:15:00.751Z,99783.50
2022-08-03T07:17:29.617Z,99825.63
2022-08-03T07:19:57.829Z,99818.72
2022-08-03T07:22:25.680Z,99829.06
2022-08-03T07:24:54.880Z,99818.38
2022-08-03T07:27:22.712Z,99822.59
2022-08-03T07:29:50.626Z,99826.13
2022-08-03T07:32:18.864Z,99838.16
2022-08-03T07:34:46.978Z,99830.16
2022-08-03T07:37:14.821Z,99835.22
2022-08-03T07:39:42.797Z,99824.97
2022-08-03T07:42:12.001Z,99826.28
2022-08-03T07:44:40.571Z,99813.34
2022-08-03T07:47:08.416Z,99827.53
2022-08-03T07:49:41.107Z,99823.84
2022-08-03T07:52:28.333Z,99827.44
2022-08-03T07:54:56.451Z,99829.75
2022-08-03T07:57:25.793Z,99825.75
2022-08-03T07:59:57.118Z,99824.06
2022-08-03T08:02:30.123Z,99823.50
2022-08-03T08:05:02.160Z,99833.66
2022-08-03T08:07:32.919Z,99825.41
2022-08-03T08:10:00.808Z,99827.25
2022-08-03T08:12:30.009Z,99825.59
2022-08-03T08:14:57.987Z,99800.84
2022-08-03T08:17:25.829Z,99824.84
2022-08-03T08:19:54.829Z,99824.84
2022-08-03T08:22:30.263Z,99829.72
2022-08-03T08:25:01.815Z,99820.31
2022-08-03T08:28:29.133Z,99825.78
2022-08-03T08:30:20.131Z,99818.63
2022-08-03T08:32:50.242Z,99830.47
2022-08-03T08:35:18.468Z,99822.19
2022-08-03T08:37:51.082Z,99808.88
2022-08-03T08:40:22.916Z,99826.16
2022-08-03T08:42:58.274Z,99815.22
2022-08-03T08:45:26.528Z,99820.06
2022-08-03T08:47:58.230Z,99815.84
2022-08-03T08:50:28.905Z,99829.28
2022-08-03T08:52:56.873Z,99819.72
2022-08-03T08:55:24.834Z,99821.56
2022-08-03T08:57:56.772Z,99829.00
2022-08-03T09:00:24.650Z,99829.25
2022-08-03T09:02:52.471Z,99835.72
2022-08-03T09:05:27.831Z,99832.81
2022-08-03T09:08:03.811Z,99830.16
2022-08-03T09:10:31.748Z,99804.91
2022-08-03T09:13:01.091Z,99823.19
2022-08-03T09:15:31.498Z,99801.47
2022-08-03T09:18:00.734Z,99835.00
2022-08-03T09:20:29.648Z,99828.22
2022-08-03T09:22:59.250Z,99829.16
2022-08-03T09:25:35.538Z,99769.19
2022-08-03T09:28:10.372Z,99840.59
2022-08-03T09:30:38.768Z,99827.09
2022-08-03T09:33:08.324Z,99823.16
2022-08-03T09:35:53.701Z,99814.91
2022-08-03T09:38:24.202Z,99822.63
2022-08-03T09:40:55.940Z,99822.69
2022-08-03T09:43:28.275Z,99825.84
2022-08-03T09:46:03.513Z,99814.25
2022-08-03T09:48:33.303Z,99812.81
2022-08-03T09:51:12.506Z,99829.63
2022-08-03T09:53:57.207Z,99821.06
2022-08-03T09:56:38.401Z,99825.19
2022-08-03T09:59:07.707Z,99834.34
2022-08-03T10:01:37.314Z,99784.56
2022-08-03T10:04:05.680Z,99825.09
2022-08-03T10:06:33.548Z,99833.72
2022-08-03T10:09:08.745Z,99826.75
2022-08-03T10:11:41.231Z,99825.16
2022-08-03T10:14:18.783Z,99823.22
2022-08-03T10:16:47.480Z,99819.28
2022-08-03T10:19:15.846Z,99823.91
2022-08-03T10:21:47.367Z,99821.16
2022-08-03T10:24:15.338Z,99822.31
2022-08-03T10:26:49.958Z,99811.91
2022-08-03T10:29:25.474Z,99809.25
2022-08-03T10:31:57.616Z,99809.94
2022-08-03T10:34:27.402Z,99812.38
2022-08-03T10:36:58.356Z,99797.41
2022-08-03T10:39:28.748Z,99797.34
2022-08-03T10:41:58.248Z,99797.16
2022-08-03T10:44:27.629Z,99790.69
2022-08-03T10:46:55.608Z,99792.53
2022-08-03T10:49:34.301Z,99796.25
2022-08-03T10:52:02.929Z,99786.53
2022-08-03T10:55:00.147Z,99789.22
2022-08-03T10:57:48.764Z,99781.84
2022-08-03T11:00:18.747Z,99777.19
2022-08-03T11:03:16.841Z,99771.97
2022-08-03T11:05:47.084Z,99768.63
2022-08-03T11:08:29.189Z,99767.09
2022-08-03T11:10:59.194Z,99757.19
2022-08-03T11:13:31.050Z,99751.72
2022-08-03T11:16:03.931Z,99759.44
2022-08-03T11:18:34.466Z,99732.72
2022-08-03T11:21:03.951Z,99763.38
2022-08-03T11:24:04.747Z,99759.22
2022-08-03T11:26:30.524Z,99752.38
2022-08-03T11:29:23.233Z,99755.88
2022-08-03T11:31:53.103Z,99740.13
2022-08-03T11:34:21.153Z,99751.22
2022-08-03T11:37:21.397Z,99754.38
2022-08-03T11:39:54.650Z,99746.84
2022-08-03T11:42:48.011Z,99763.06
2022-08-03T11:45:16.334Z,99708.97
2022-08-03T11:47:50.543Z,99743.41
2022-08-03T11:50:21.449Z,99743.38
2022-08-03T11:52:50.004Z,99735.78
2022-08-03T11:55:20.519Z,99739.22
2022-08-03T11:59:00.776Z,99748.88
2022-08-03T12:00:36.934Z,99738.28
2022-08-03T12:03:08.817Z,99729.34
2022-08-03T12:05:41.034Z,99746.66
2022-08-03T12:08:09.625Z,99749.78
2022-08-03T12:10:37.944Z,99721.59
2022-08-03T12:14:05.773Z,99712.88
2022-08-03T12:15:59.318Z,99726.25
2022-08-03T12:18:28.626Z,99737.13
2022-08-03T12:21:06.000Z,99732.59
2022-08-03T12:23:37.641Z,99635.16
2022-08-03T12:26:06.917Z,99727.78
2022-08-03T12:28:37.728Z,99733.72
2022-08-03T12:31:07.451Z,99722.56
2022-08-03T12:33:56.519Z,99721.28
2022-08-03T12:36:24.420Z,99723.63
2022-08-03T12:38:56.224Z,99734.38
2022-08-03T12:41:29.517Z,99725.97
2022-08-03T12:43:57.620Z,99720.41
2022-08-03T12:46:31.198Z,99725.06
2022-08-03T12:49:01.500Z,99727.81
2022-08-03T12:51:29.555Z,99719.50
2022-08-03T12:53:58.016Z,99711.69
2022-08-03T12:56:25.873Z,99716.88
2022-08-03T12:58:54.201Z,99716.44
2022-08-03T13:01:24.450Z,99709.06
2022-08-03T13:03:54.610Z,99708.22
2022-08-03T13:06:25.704Z,99708.22
2022-08-03T13:09:03.487Z,99714.78
2022-08-03T13:11:55.681Z,99706.97
2022-08-03T13:14:20.149Z,99713.06
2022-08-03T13:16:49.073Z,99701.66
2022-08-03T13:19:17.015Z,99700.34
2022-08-03T13:21:53.406Z,99707.91
2022-08-03T13:24:31.973Z,99699.59
2022-08-03T13:27:00.105Z,99692.22
2022-08-03T13:29:28.070Z,99704.00
2022-08-03T13:31:55.937Z,99700.16
2022-08-03T13:34:24.186Z,99690.69
2022-08-03T13:37:08.450Z,99687.47
2022-08-03T13:39:57.829Z,99694.19
2022-08-03T13:42:25.238Z,99680.25
2022-08-03T13:44:53.204Z,99693.03
2022-08-03T13:47:22.124Z,99691.34
2022-08-03T13:50:00.249Z,99692.66
2022-08-03T13:52:32.451Z,99683.97
2022-08-03T13:55:00.711Z,99677.47
2022-08-03T13:58:04.085Z,99675.78
2022-08-03T14:00:26.527Z,99672.25
2022-08-03T14:03:02.787Z,99657.81
2022-08-03T14:05:32.686Z,99666.81
2022-08-03T14:08:04.767Z,99667.09
2022-08-03T14:10:33.917Z,99665.47
2022-08-03T14:13:01.780Z,99661.50
2022-08-03T14:15:30.025Z,99648.59
2022-08-03T14:17:58.504Z,99666.97
2022-08-03T14:20:37.689Z,99663.78
2022-08-03T14:23:16.116Z,99660.16
2022-08-03T14:25:52.579Z,99653.06
2022-08-03T14:28:22.586Z,99652.91
2022-08-03T14:30:52.036Z,99667.22
2022-08-03T14:33:19.913Z,99662.28
2022-08-03T14:35:47.915Z,99653.25
2022-08-03T14:38:17.467Z,99662.19
2022-08-03T14:40:45.554Z,99641.34
2022-08-03T14:43:13.688Z,99653.78
2022-08-03T14:45:41.537Z,99645.22
2022-08-03T14:50:29.228Z,99652.09
2022-08-03T14:50:57.471Z,99639.28
2022-08-03T14:53:26.683Z,99632.53
2022-08-03T14:55:54.576Z,99633.34
2022-08-03T14:58:22.804Z,99605.53
2022-08-03T15:00:51.248Z,99636.50
2022-08-03T15:03:20.481Z,99627.94
2022-08-03T15:05:48.557Z,99622.31
2022-08-03T15:08:16.501Z,99615.00
2022-08-03T15:10:45.762Z,99557.31
2022-08-03T15:13:13.750Z,99609.31
2022-08-03T15:15:41.976Z,99613.59
2022-08-03T15:18:09.883Z,99600.44
2022-08-03T15:20:45.552Z,99618.50
2022-08-03T15:23:14.513Z,99525.25
2022-08-03T15:26:27.970Z,99612.28
2022-08-03T15:28:31.817Z,99610.53
2022-08-03T15:30:59.698Z,99600.34
2022-08-03T15:33:27.828Z,99598.53
2022-08-03T15:35:56.229Z,99572.00
2022-08-03T15:38:26.141Z,99566.28
2022-08-03T15:40:55.482Z,99592.03
2022-08-03T15:43:23.945Z,99568.34
2022-08-03T15:48:41.032Z,99585.06
2022-08-03T15:51:09.084Z,99588.66
2022-08-03T15:53:37.036Z,99558.53
2022-08-03T15:56:10.433Z,99589.41
2022-08-03T15:58:59.633Z,99588.75
2022-08-03T16:01:29.507Z,99576.25
2022-08-03T16:03:57.463Z,99585.97
2022-08-03T16:06:29.790Z,99583.59
2022-08-03T16:09:03.712Z,99582.91
2022-08-03T16:11:32.749Z,99563.44
2022-08-03T16:14:12.904Z,99559.03
2022-08-03T16:16:49.837Z,99586.03
2022-08-03T16:19:17.864Z,99574.19
2022-08-03T16:21:48.795Z,99579.25
2022-08-03T16:24:25.866Z,99579.81
2022-08-03T16:26:55.851Z,99579.16
2022-08-03T16:29:24.208Z,99584.81
2022-08-03T16:31:53.597Z,99575.31
2022-08-03T16:34:21.634Z,99580.31
2022-08-03T16:36:49.476Z,99581.53
2022-08-03T16:39:17.573Z,99579.34
2022-08-03T16:41:53.635Z,99584.72
2022-08-03T16:44:29.639Z,99580.75
2022-08-03T16:46:58.941Z,99581.31
2022-08-03T16:49:55.252Z,99576.97
2022-08-03T16:52:16.460Z,99578.09
2022-08-03T16:54:52.686Z,99576.97
2022-08-03T16:57:56.530Z,99579.75
2022-08-03T17:00:11.750Z,99548.53
2022-08-03T17:02:48.220Z,99573.47
2022-08-03T17:05:16.413Z,99579.47
2022-08-03T17:10:22.065Z,99571.06
2022-08-03T17:12:55.280Z,99576.91
2022-08-03T17:15:38.158Z,99571.88
2022-08-03T17:18:12.475Z,99580.47
2022-08-03T17:20:42.588Z,99575.25
2022-08-03T17:23:34.833Z,99579.91
2022-08-03T17:26:04.785Z,99488.47
2022-08-03T17:28:50.029Z,99570.25
2022-08-03T17:31:31.843Z,99577.25
2022-08-03T17:34:04.621Z,99580.84
2022-08-03T17:37:02.780Z,99583.59
2022-08-03T17:39:36.191Z,99573.78
2022-08-03T17:45:02.320Z,99573.78
2022-08-03T17:47:42.003Z,99580.78
2022-08-03T17:50:24.436Z,99576.38
2022-08-03T17:53:00.765Z,99570.63
2022-08-03T17:55:55.443Z,99574.69
2022-08-03T17:58:20.917Z,99579.09
2022-08-03T18:01:02.810Z,99584.53
2022-08-03T18:03:57.773Z,99585.22
2022-08-03T18:06:28.764Z,99591.66
2022-08-03T18:08:57.431Z,99590.63
2022-08-03T18:11:35.608Z,99586.22
2022-08-03T18:16:57.915Z,99565.97
2022-08-03T18:20:03.507Z,99585.34
2022-08-03T18:22:17.944Z,99587.19
2022-08-03T18:24:46.775Z,99584.47
2022-08-03T18:27:16.878Z,99587.00
2022-08-03T18:29:47.720Z,99508.81
2022-08-03T18:32:16.899Z,99587.09
2022-08-03T18:34:53.819Z,99560.19
2022-08-03T18:37:25.169Z,99579.25
2022-08-03T18:39:55.010Z,99583.47
2022-08-03T18:45:14.690Z,99592.69
2022-08-03T18:47:53.077Z,99591.97
2022-08-03T18:50:26.013Z,99558.59
2022-08-03T18:53:01.372Z,99559.03
2022-08-03T18:55:33.029Z,99585.16
2022-08-03T18:58:07.391Z,99554.44
2022-08-03T19:00:54.305Z,99588.91
2022-08-03T19:03:24.587Z,99591.88
2022-08-03T19:06:03.030Z,99592.09
2022-08-03T19:08:47.808Z,99589.47
2022-08-03T19:11:18.956Z,99593.56
2022-08-03T19:13:50.183Z,99556.22
2022-08-03T19:16:22.195Z,99593.91
2022-08-03T19:18:50.704Z,99594.94
2022-08-03T19:21:19.817Z,99601.38
2022-08-03T19:23:51.746Z,99606.19
2022-08-03T19:26:30.386Z,99609.78
2022-08-03T19:28:59.347Z,99574.59
2022-08-03T19:31:30.838Z,99610.53
2022-08-03T19:34:01.174Z,99608.72
2022-08-03T19:36:32.942Z,99612.31
2022-08-03T19:39:09.255Z,99616.91
2022-08-03T19:41:42.038Z,99623.31
2022-08-03T19:44:11.646Z,99630.47
2022-08-03T19:46:43.007Z,99617.94
2022-08-03T19:49:15.253Z,99606.03
2022-08-03T19:52:01.026Z,99610.44
2022-08-03T19:54:45.457Z,99627.34
2022-08-03T19:57:20.787Z,99619.94
2022-08-03T19:59:50.718Z,99615.56
2022-08-03T20:02:26.526Z,99611.97
2022-08-03T20:04:55.314Z,99617.09
2022-08-03T20:07:23.860Z,99615.06
2022-08-03T20:09:54.540Z,99619.34
2022-08-03T20:12:26.636Z,99613.50
2022-08-03T20:14:56.601Z,99622.16
2022-08-03T20:20:12.324Z,99605.38
2022-08-03T20:22:43.059Z,99609.44
2022-08-03T20:25:16.265Z,99609.28
2022-08-03T20:28:08.046Z,99602.00
2022-08-03T20:30:37.144Z,99601.13
2022-08-03T20:33:05.390Z,99616.44
2022-08-03T20:35:33.849Z,99584.00
2022-08-03T20:38:01.840Z,99614.44
2022-08-03T20:40:31.180Z,99619.38
2022-08-03T20:42:59.780Z,99620.63
2022-08-03T20:45:59.579Z,99622.88
2022-08-03T20:48:21.972Z,99620.97
2022-08-03T20:50:50.201Z,99611.50
2022-08-03T20:53:57.410Z,99632.38
2022-08-03T20:56:07.460Z,99630.38
2022-08-03T20:58:35.449Z,99629.88
2022-08-03T21:01:04.116Z,99623.94
2022-08-03T21:03:41.122Z,99627.03
2022-08-03T21:06:27.976Z,99621.16
2022-08-03T21:09:00.246Z,99605.19
2022-08-03T21:12:54.738Z,99574.78
2022-08-03T21:12:57.247Z,99582.50
2022-08-03T21:12:58.871Z,99584.28
2022-08-03T21:13:03.793Z,99613.63
2022-08-03T21:13:08.184Z,99612.44
2022-08-03T21:14:25.821Z,99599.25
2022-08-03T21:16:53.798Z,99619.56
2022-08-03T21:19:22.715Z,99606.88
2022-08-03T21:21:50.771Z,99585.19
2022-08-03T21:24:22.855Z,99613.03
2022-08-03T21:26:52.610Z,99611.84
2022-08-03T21:29:20.710Z,99620.91
2022-08-03T21:31:48.862Z,99620.19
2022-08-03T21:34:16.915Z,99596.25
2022-08-03T21:36:45.038Z,99603.81
2022-08-03T21:39:13.223Z,99612.88
2022-08-03T21:41:41.516Z,99613.09
2022-08-03T21:44:10.999Z,99614.34
2022-08-03T21:46:40.547Z,99610.44
2022-08-03T21:50:07.081Z,99598.47
2022-08-03T21:51:58.698Z,99611.19
2022-08-03T21:54:29.141Z,99608.88
2022-08-03T21:56:57.138Z,99567.72
2022-08-03T21:59:26.960Z,99569.47
2022-08-03T22:01:58.770Z,99603.41
2022-08-03T22:04:50.410Z,99568.38
2022-08-03T22:07:15.604Z,99597.28
2022-08-03T22:09:50.991Z,99612.06
2022-08-03T22:12:21.843Z,99612.31
2022-08-03T22:14:53.577Z,99606.34
2022-08-03T22:17:54.554Z,99597.31
2022-08-03T22:20:19.479Z,99602.06
2022-08-03T22:22:55.309Z,99610.25
2022-08-03T22:25:25.826Z,99610.50
2022-08-03T22:27:53.972Z,99611.84
2022-08-03T22:30:23.228Z,99614.91
2022-08-03T22:32:51.542Z,99602.53
2022-08-03T22:35:19.496Z,99561.75
2022-08-03T22:37:47.477Z,99617.59
2022-08-03T22:40:16.390Z,99617.81
2022-08-03T22:42:45.794Z,99609.97
2022-08-03T22:46:06.910Z,99585.53
2022-08-03T22:48:03.163Z,99615.75
2022-08-03T22:50:33.965Z,99601.19
2022-08-03T22:53:01.945Z,99600.56
2022-08-03T22:55:30.038Z,99615.34
2022-08-03T22:57:57.881Z,99619.25
2022-08-03T23:00:26.052Z,99605.31
2022-08-03T23:02:55.049Z,99574.66
2022-08-03T23:06:02.460Z,99600.91
2022-08-03T23:08:14.530Z,99529.81
2022-08-03T23:10:46.461Z,99415.06
2022-08-03T23:13:15.416Z,99625.53
2022-08-03T23:15:43.429Z,99512.69
2022-08-03T23:18:11.244Z,99501.66
2022-08-03T23:20:40.846Z,99610.91
2022-08-03T23:23:12.602Z,99569.56
2022-08-03T23:25:41.781Z,99585.22
2022-08-03T23:28:10.665Z,99303.41
2022-08-03T23:30:38.686Z,99344.69
2022-08-03T23:33:06.646Z,99506.91
2022-08-03T23:36:28.528Z,99503.19
2022-08-03T23:38:41.884Z,99493.06
2022-08-03T23:41:10.153Z,99288.31
2022-08-03T23:43:51.044Z,99205.69
2022-08-03T23:46:22.307Z,99450.06
2022-08-03T23:48:51.200Z,99103.97
2022-08-03T23:51:34.745Z,99591.38
2022-08-03T23:54:10.875Z,99607.69
2022-08-03T23:56:43.684Z,99496.84
2022-08-03T23:59:15.048Z,99409.66
